Coos Bay, OR (97420)

9:46 AM PDT on October 02, 2014 (GMT -0700)
Marshfield High School | Change Station
CLOSE
Current Station
Personal Weather Station
Location: Coos Bay, OR
Elevation: 100 ft
Nearby Weather Stations

Elev 100 ft 43.36 °N, 124.22 °W | Updated 1 second ago

Clear
Clear
61.1 °F
Feels Like 61.1 °F
N
0.0
Wind Variable Wind from NE
Gusts 2.0 mph

Today
High -- | Low -- °F
--% Chance of Precip.
Yesterday
High -- | Low -- °F
Precip. -- in
7:15 AM 6:56 PM
First Quarter, 60% visible
Pressure 30.20 in
Visibility 10.0 miles
Clouds Clear
Dew Point 53 °F
Humidity 75%
Rainfall 0.00 in
Snow Depth 0 in , 1 in , 0 in
UV 2 out of 12
Pollen 1.40 out of 12
Air Quality Not available.
Flu Activity Not available.
METAR KOTH 021635Z 01003KT 10SM CLR 14/12 A3020 RMK AO1

More Conditions Fewer Conditions

Pressure 30.20 in
Visibility 10.0 miles
Clouds Clear
Dew Point 53 °F
Humidity 75%
Rainfall 0.00 in
Snow Depth 0 in , 1 in , 0 in
UV 2 out of 12
Pollen 1.40 out of 12
Air Quality Not available.
Flu Activity Not available.
METAR KOTH 021635Z 01003KT 10SM CLR 14/12 A3020 RMK AO1

More Conditions Fewer Conditions

10-Day Weather Forecast

Almanac

Astronomy

Oct. 02, 2014 Rise Set
Actual Time 7:15 AM PDT 6:56 PM PDT
Civil Twilight 6:47 AM PDT 7:24 PM PDT
Nautical Twilight 6:14 AM PDT 7:57 PM PDT
Astronomical Twilight 5:40 AM PDT 8:30 PM PDT
Moon 3:15 PM PDT 12:29 AM PDT
Length of Visible Light 12h 37m
Length of Day
11h 40m
Tomorrow will be 2m 55s shorter.
First Quarter, 60% of the Moon is Illuminated
Today
First Quarter
Oct 8
Full
Oct 15
Last Quarter
Oct 23
New
Oct 30
First Quarter

Today's Extremes

State Highs State Lows

Community

WunderPhotos

Upload Photos

1,758,294 photos uploaded!

WunderBlogs® & News

Nearby

Snow Depth

Station Depth Elevation
Roaring River 0 in 4900 ft
Beaver Reservoir 1 in 5150 ft
Blazed Alder 0 in 3650 ft
Chemult Alternate 0 in 4760 ft
Gold Center 0 in 5340 ft

Earthquake Activity

City Distance Mag. Time & Date
No recent earthquake activity has been reported nearby.
Minimum magnitude displayed is 2.5.

Coastal Water Temperatures

Place Temperature
Port Orford, OR 53.1 °F
Charleston, OR 55.9 °F
South Beach, OR 59.0 °F

Nearby Weather Stations